createdAt,value
2018-08-06T00:00:21.927Z,3.33
2018-08-06T00:02:50.305Z,2.33
2018-08-06T00:05:18.836Z,4.00
2018-08-06T00:07:47.351Z,4.77
2018-08-06T00:10:17.316Z,7.67
2018-08-06T00:12:45.654Z,6.37
2018-08-06T00:15:14.766Z,4.10
2018-08-06T00:17:43.442Z,3.23
2018-08-06T00:20:12.916Z,2.03
2018-08-06T00:22:41.690Z,3.80
2018-08-06T00:25:11.417Z,3.03
2018-08-06T00:27:40.187Z,2.37
2018-08-06T00:30:10.655Z,3.13
2018-08-06T00:32:40.047Z,2.47
2018-08-06T00:35:08.711Z,2.53
2018-08-06T00:37:37.190Z,2.23
2018-08-06T00:40:07.504Z,2.23
2018-08-06T00:42:35.832Z,3.40
2018-08-06T00:45:04.966Z,5.03
2018-08-06T00:47:33.271Z,4.13
2018-08-06T00:50:01.573Z,2.50
2018-08-06T00:52:29.848Z,2.53
2018-08-06T00:54:58.150Z,3.40
2018-08-06T00:57:26.465Z,1.97
2018-08-06T00:59:54.766Z,2.37
2018-08-06T01:02:23.060Z,2.10
2018-08-06T01:04:51.360Z,1.83
2018-08-06T01:07:19.660Z,2.20
2018-08-06T01:09:47.994Z,2.40
2018-08-06T01:12:16.286Z,3.13
2018-08-06T01:14:44.578Z,1.93
2018-08-06T01:17:12.866Z,2.83
2018-08-06T01:19:41.260Z,2.57
2018-08-06T01:22:09.566Z,2.10
2018-08-06T01:24:37.855Z,2.00
2018-08-06T01:27:06.578Z,2.00
2018-08-06T01:29:34.883Z,2.20
2018-08-06T01:32:03.166Z,3.10
2018-08-06T01:34:31.541Z,4.50
2018-08-06T01:36:59.882Z,4.80
2018-08-06T01:39:28.195Z,5.87
2018-08-06T01:41:56.490Z,7.63
2018-08-06T01:44:24.799Z,7.17
2018-08-06T01:46:53.094Z,6.17
2018-08-06T01:49:21.387Z,6.03
2018-08-06T01:51:49.678Z,6.33
2018-08-06T01:54:17.967Z,6.53
2018-08-06T01:56:46.298Z,7.73
2018-08-06T01:59:14.662Z,7.83
2018-08-06T02:01:42.962Z,11.80
2018-08-06T02:04:11.315Z,18.13
2018-08-06T02:06:39.372Z,12.40
2018-08-06T02:09:08.322Z,13.50
2018-08-06T02:11:36.778Z,14.30
2018-08-06T02:14:05.281Z,12.50
2018-08-06T02:16:33.627Z,11.93
2018-08-06T02:19:01.935Z,14.80
2018-08-06T02:21:30.283Z,12.33
2018-08-06T02:23:58.574Z,12.43
2018-08-06T02:26:26.894Z,9.83
2018-08-06T02:28:55.188Z,12.00
2018-08-06T02:31:23.235Z,12.87
2018-08-06T02:33:51.566Z,45.27
2018-08-06T02:36:19.950Z,34.50
2018-08-06T02:38:48.260Z,40.13
2018-08-06T02:41:16.563Z,44.60
2018-08-06T02:43:44.895Z,41.07
2018-08-06T02:46:13.208Z,40.40
2018-08-06T02:48:41.501Z,35.10
2018-08-06T02:51:09.795Z,35.07
2018-08-06T02:53:38.193Z,30.53
2018-08-06T02:56:07.294Z,30.93
2018-08-06T02:58:35.609Z,27.27
2018-08-06T03:01:04.059Z,30.90
2018-08-06T03:03:32.374Z,30.53
2018-08-06T03:06:00.688Z,24.10
2018-08-06T03:08:29.006Z,26.27
2018-08-06T03:10:57.310Z,26.50
2018-08-06T03:13:25.659Z,23.77
2018-08-06T03:15:53.960Z,27.57
2018-08-06T03:18:22.291Z,23.50
2018-08-06T03:20:50.587Z,29.60
2018-08-06T03:23:18.930Z,42.40
2018-08-06T03:25:47.226Z,43.40
2018-08-06T03:28:15.554Z,47.53
2018-08-06T03:30:43.861Z,41.93
2018-08-06T03:33:12.179Z,26.80
2018-08-06T03:35:40.665Z,38.70
2018-08-06T03:38:08.946Z,37.87
2018-08-06T03:40:37.276Z,33.10
2018-08-06T03:43:05.614Z,30.53
2018-08-06T03:45:33.944Z,29.43
2018-08-06T03:48:02.271Z,34.40
2018-08-06T03:50:30.585Z,29.03
2018-08-06T03:52:58.934Z,31.07
2018-08-06T03:55:27.234Z,28.70
2018-08-06T03:57:55.543Z,24.27
2018-08-06T04:00:23.958Z,25.00
2018-08-06T04:02:52.314Z,20.97
2018-08-06T04:05:20.646Z,20.50
2018-08-06T04:07:48.992Z,21.73
2018-08-06T04:10:17.773Z,21.40
2018-08-06T04:12:46.339Z,18.67
2018-08-06T04:15:14.658Z,16.63
2018-08-06T04:17:43.576Z,17.03
2018-08-06T04:20:12.719Z,15.97
2018-08-06T04:22:41.809Z,16.70
2018-08-06T04:25:10.127Z,16.43
2018-08-06T04:27:38.495Z,16.20
2018-08-06T04:30:07.644Z,13.20
2018-08-06T04:32:35.946Z,14.50
2018-08-06T04:35:04.428Z,11.83
2018-08-06T04:37:32.718Z,13.50
2018-08-06T04:40:01.031Z,14.10
2018-08-06T04:42:29.507Z,13.83
2018-08-06T04:44:57.791Z,11.97
2018-08-06T04:47:26.087Z,12.73
2018-08-06T04:49:54.380Z,12.97
2018-08-06T04:52:22.682Z,12.03
2018-08-06T04:54:50.968Z,9.47
2018-08-06T04:57:19.286Z,12.80
2018-08-06T04:59:47.673Z,11.13
2018-08-06T05:02:15.895Z,9.97
2018-08-06T05:04:44.203Z,8.80
2018-08-06T05:07:12.632Z,8.63
2018-08-06T05:09:44.401Z,8.23
2018-08-06T05:12:12.706Z,10.17
2018-08-06T05:14:41.675Z,9.20
2018-08-06T05:17:09.963Z,8.77
2018-08-06T05:19:38.612Z,7.53
2018-08-06T05:22:07.404Z,7.60
2018-08-06T05:24:35.736Z,6.80
2018-08-06T05:27:04.022Z,6.33
2018-08-06T05:29:32.402Z,7.20
2018-08-06T05:32:00.719Z,8.53
2018-08-06T05:34:29.006Z,7.23
2018-08-06T05:36:57.302Z,6.47
2018-08-06T05:39:25.389Z,5.93
2018-08-06T05:41:53.663Z,6.33
2018-08-06T05:44:21.973Z,5.23
2018-08-06T05:46:50.254Z,6.33
2018-08-06T05:49:18.566Z,8.17
2018-08-06T05:51:46.882Z,7.17
2018-08-06T05:54:15.189Z,5.27
2018-08-06T05:56:43.473Z,12.77
2018-08-06T05:59:11.782Z,6.00
2018-08-06T06:01:40.123Z,5.10
2018-08-06T06:04:08.459Z,4.37
2018-08-06T06:06:36.774Z,4.53
2018-08-06T06:09:07.835Z,4.83
2018-08-06T06:11:36.268Z,2.80
2018-08-06T06:14:05.115Z,6.27
2018-08-06T06:16:33.442Z,2.97
2018-08-06T06:19:01.808Z,3.57
2018-08-06T06:21:30.356Z,10.57
2018-08-06T06:23:58.698Z,23.27
2018-08-06T06:26:27.068Z,10.07
2018-08-06T06:28:55.389Z,9.33
2018-08-06T06:31:24.281Z,5.77
2018-08-06T06:33:52.947Z,6.43
2018-08-06T06:36:21.279Z,4.90
2018-08-06T06:38:49.754Z,6.93
2018-08-06T06:41:18.104Z,5.53
2018-08-06T06:43:46.403Z,5.40
2018-08-06T06:46:14.762Z,10.07
2018-08-06T06:48:43.092Z,4.70
2018-08-06T06:51:11.402Z,8.70
2018-08-06T06:53:39.754Z,5.23
2018-08-06T06:56:08.055Z,15.33
2018-08-06T06:58:36.364Z,7.70
2018-08-06T07:01:04.677Z,10.07
2018-08-06T07:03:32.971Z,5.87
2018-08-06T07:06:01.263Z,6.07
2018-08-06T07:08:29.580Z,3.60
2018-08-06T07:10:57.922Z,6.17
2018-08-06T07:13:26.218Z,8.47
2018-08-06T07:15:54.558Z,5.33
2018-08-06T07:18:22.942Z,8.37
2018-08-06T07:20:51.261Z,3.80
2018-08-06T07:23:19.559Z,4.13
2018-08-06T07:25:47.938Z,4.80
2018-08-06T07:28:16.260Z,3.13
2018-08-06T07:30:44.669Z,4.17
2018-08-06T07:33:12.974Z,4.50
2018-08-06T07:35:41.430Z,3.90
2018-08-06T07:38:09.715Z,3.87
2018-08-06T07:40:37.802Z,6.47
2018-08-06T07:43:06.210Z,31.60
2018-08-06T07:45:34.472Z,17.87
2018-08-06T07:48:02.998Z,23.60
2018-08-06T07:50:31.058Z,14.30
2018-08-06T07:52:59.331Z,8.23
2018-08-06T07:55:27.624Z,10.83
2018-08-06T07:57:55.930Z,8.43
2018-08-06T08:00:24.236Z,8.77
2018-08-06T08:02:52.558Z,11.83
2018-08-06T08:05:20.872Z,21.30
2018-08-06T08:07:49.303Z,11.20
2018-08-06T08:10:19.430Z,15.03
2018-08-06T08:12:47.734Z,9.40
2018-08-06T08:15:18.148Z,13.00
2018-08-06T08:17:47.330Z,16.07
2018-08-06T08:20:16.801Z,9.07
2018-08-06T08:22:45.095Z,10.97
2018-08-06T08:25:15.634Z,7.93
2018-08-06T08:27:44.308Z,10.33
2018-08-06T08:30:13.840Z,9.30
2018-08-06T08:32:42.190Z,10.80
2018-08-06T08:35:11.207Z,11.13
2018-08-06T08:37:39.551Z,15.23
2018-08-06T08:40:13.802Z,7.77
2018-08-06T08:42:42.183Z,9.83
2018-08-06T08:45:12.602Z,9.77
2018-08-06T08:47:41.711Z,9.83
2018-08-06T08:50:13.506Z,9.63
2018-08-06T08:52:42.298Z,7.60
2018-08-06T08:55:11.955Z,7.23
2018-08-06T08:57:40.253Z,9.53
2018-08-06T09:00:11.781Z,9.80
2018-08-06T09:02:40.139Z,9.50
2018-08-06T09:05:08.442Z,7.17
2018-08-06T09:07:37.710Z,9.73
2018-08-06T09:10:07.233Z,7.37
2018-08-06T09:12:35.609Z,9.67
2018-08-06T09:15:05.549Z,7.70
2018-08-06T09:17:33.851Z,7.47
2018-08-06T09:20:02.190Z,8.17
2018-08-06T09:22:30.490Z,6.43
2018-08-06T09:24:58.810Z,7.53
2018-08-06T09:27:27.114Z,9.40
2018-08-06T09:29:55.449Z,7.80
2018-08-06T09:32:23.765Z,6.57
2018-08-06T09:34:52.067Z,7.10
2018-08-06T09:37:20.365Z,7.60
2018-08-06T09:39:48.635Z,6.50
2018-08-06T09:42:16.959Z,6.57
2018-08-06T09:44:45.238Z,5.73
2018-08-06T09:47:13.547Z,6.20
2018-08-06T09:49:41.851Z,5.50
2018-08-06T09:52:10.153Z,5.90
2018-08-06T09:54:38.434Z,5.73
2018-08-06T09:57:06.896Z,6.80
2018-08-06T09:59:35.151Z,6.87
2018-08-06T10:02:03.434Z,6.00
2018-08-06T10:04:31.514Z,6.30
2018-08-06T10:06:59.833Z,7.80
2018-08-06T10:09:28.158Z,15.33
2018-08-06T10:11:56.501Z,24.30
2018-08-06T10:14:24.763Z,34.80
2018-08-06T10:16:53.169Z,26.67
2018-08-06T10:19:21.526Z,30.40
2018-08-06T10:21:49.873Z,27.17
2018-08-06T10:24:18.189Z,23.67
2018-08-06T10:26:46.515Z,25.03
2018-08-06T10:29:14.819Z,29.50
2018-08-06T10:31:43.137Z,23.90
2018-08-06T10:34:11.458Z,22.97
2018-08-06T10:36:39.836Z,29.70
2018-08-06T10:39:09.902Z,33.63
2018-08-06T10:41:38.721Z,27.60
2018-08-06T10:44:07.059Z,32.17
2018-08-06T10:46:35.432Z,30.20
2018-08-06T10:49:03.743Z,35.83
2018-08-06T10:51:32.037Z,34.17
2018-08-06T10:54:00.422Z,39.77
2018-08-06T10:56:28.719Z,33.40
2018-08-06T10:58:57.050Z,33.57
2018-08-06T11:01:25.411Z,26.60
2018-08-06T11:03:53.718Z,28.97
2018-08-06T11:06:22.018Z,26.77
2018-08-06T11:08:50.368Z,27.57
2018-08-06T11:11:18.714Z,29.67
2018-08-06T11:13:47.414Z,28.33
2018-08-06T11:16:15.731Z,30.87
2018-08-06T11:18:44.123Z,32.43
2018-08-06T11:21:12.530Z,31.23
2018-08-06T11:23:40.831Z,27.90
2018-08-06T11:26:09.136Z,26.63
2018-08-06T11:28:37.227Z,27.90
2018-08-06T11:31:05.485Z,27.77
2018-08-06T11:33:33.805Z,28.77
2018-08-06T11:36:02.116Z,27.80
2018-08-06T11:38:30.418Z,27.37
2018-08-06T11:40:58.742Z,25.40
2018-08-06T11:43:27.043Z,25.17
2018-08-06T11:45:55.395Z,25.27
2018-08-06T11:48:23.718Z,24.13
2018-08-06T11:50:52.047Z,23.63
2018-08-06T11:53:20.339Z,22.73
2018-08-06T11:55:48.653Z,22.20
2018-08-06T11:58:16.958Z,21.20
2018-08-06T12:00:45.258Z,20.33
2018-08-06T12:03:13.587Z,22.10
2018-08-06T12:05:41.887Z,22.10
2018-08-06T12:08:10.208Z,19.57
2018-08-06T12:10:38.498Z,20.50
2018-08-06T12:13:06.798Z,21.43
2018-08-06T12:15:35.122Z,23.00
2018-08-06T12:18:03.439Z,21.60
2018-08-06T12:20:31.791Z,24.70
2018-08-06T12:23:00.107Z,22.93
2018-08-06T12:25:28.410Z,30.93
2018-08-06T12:27:56.733Z,31.63
2018-08-06T12:30:25.057Z,27.00
2018-08-06T12:32:54.171Z,25.60
2018-08-06T12:35:22.486Z,31.43
2018-08-06T12:37:50.806Z,28.80
2018-08-06T12:40:21.379Z,28.10
2018-08-06T12:42:49.763Z,30.93
2018-08-06T12:45:18.434Z,27.90
2018-08-06T12:47:47.205Z,32.00
2018-08-06T12:50:16.105Z,31.93
2018-08-06T12:52:44.650Z,32.93
2018-08-06T12:55:14.166Z,37.20
2018-08-06T12:57:43.150Z,33.63
2018-08-06T13:00:14.911Z,36.47
2018-08-06T13:02:43.206Z,35.63
2018-08-06T13:05:11.854Z,39.20
2018-08-06T13:07:40.478Z,38.43
2018-08-06T13:10:08.815Z,37.03
2018-08-06T13:12:38.340Z,38.73
2018-08-06T13:15:07.634Z,38.10
2018-08-06T13:17:35.951Z,41.20
2018-08-06T13:20:05.709Z,34.27
2018-08-06T13:22:34.004Z,39.67
2018-08-06T13:25:02.344Z,42.73
2018-08-06T13:27:31.172Z,40.90
2018-08-06T13:29:59.462Z,38.33
2018-08-06T13:32:27.771Z,48.33
2018-08-06T13:34:56.082Z,35.93
2018-08-06T13:37:24.399Z,42.20
2018-08-06T13:39:52.723Z,39.33
2018-08-06T13:42:21.120Z,42.30
2018-08-06T13:44:49.482Z,41.33
2018-08-06T13:47:17.810Z,41.57
2018-08-06T13:49:46.124Z,42.03
2018-08-06T13:52:14.467Z,42.40
2018-08-06T13:54:42.781Z,40.67
2018-08-06T13:57:11.086Z,45.80
2018-08-06T13:59:39.504Z,40.53
2018-08-06T14:02:07.714Z,36.33
2018-08-06T14:04:36.365Z,43.73
2018-08-06T14:07:04.735Z,40.00
2018-08-06T14:09:32.975Z,37.23
2018-08-06T14:12:01.279Z,41.33
2018-08-06T14:14:29.622Z,38.83
2018-08-06T14:16:58.089Z,40.37
2018-08-06T14:19:26.346Z,36.03
2018-08-06T14:21:54.445Z,37.27
2018-08-06T14:24:22.742Z,35.87
2018-08-06T14:26:51.063Z,33.90
2018-08-06T14:29:19.495Z,33.87
2018-08-06T14:31:47.858Z,33.43
2018-08-06T14:34:16.254Z,32.50
2018-08-06T14:36:44.626Z,32.87
2018-08-06T14:39:13.307Z,40.23
2018-08-06T14:41:41.725Z,34.30
2018-08-06T14:44:10.448Z,35.27
2018-08-06T14:46:39.403Z,32.47
2018-08-06T14:49:08.511Z,32.37
2018-08-06T14:51:36.831Z,30.20
2018-08-06T14:54:05.192Z,32.73
2018-08-06T14:56:33.602Z,31.03
2018-08-06T14:59:01.889Z,33.97
2018-08-06T15:01:30.214Z,31.03
2018-08-06T15:03:58.506Z,29.70
2018-08-06T15:06:26.891Z,29.27
2018-08-06T15:08:55.185Z,28.63
2018-08-06T15:11:23.787Z,29.27
2018-08-06T15:13:52.296Z,25.90
2018-08-06T15:16:20.636Z,28.13
2018-08-06T15:18:48.932Z,24.83
2018-08-06T15:21:17.248Z,31.27
2018-08-06T15:23:45.658Z,33.77
2018-08-06T15:26:14.042Z,29.70
2018-08-06T15:28:42.347Z,29.07
2018-08-06T15:31:10.704Z,27.83
2018-08-06T15:33:39.018Z,31.13
2018-08-06T15:36:07.355Z,31.20
2018-08-06T15:38:36.043Z,31.03
2018-08-06T15:41:04.619Z,28.70
2018-08-06T15:43:33.011Z,30.67
2018-08-06T15:46:01.267Z,27.07
2018-08-06T15:48:29.659Z,28.50
2018-08-06T15:50:58.122Z,24.53
2018-08-06T15:53:26.439Z,32.97
2018-08-06T15:55:54.749Z,26.00
2018-08-06T15:58:23.074Z,28.97
2018-08-06T16:00:51.398Z,34.57
2018-08-06T16:03:19.870Z,38.00
2018-08-06T16:05:48.179Z,32.73
2018-08-06T16:08:16.500Z,35.60
2018-08-06T16:10:44.842Z,30.23
2018-08-06T16:13:13.234Z,32.53
2018-08-06T16:15:41.552Z,28.17
2018-08-06T16:18:09.933Z,30.57
2018-08-06T16:20:37.964Z,29.13
2018-08-06T16:23:06.481Z,27.93
2018-08-06T16:25:34.804Z,27.10
2018-08-06T16:28:03.146Z,24.50
2018-08-06T16:30:31.462Z,25.57
2018-08-06T16:32:59.879Z,32.40
2018-08-06T16:35:28.178Z,30.17
2018-08-06T16:37:57.153Z,28.63
2018-08-06T16:40:25.262Z,31.87
2018-08-06T16:42:53.598Z,28.73
2018-08-06T16:45:21.918Z,30.27
2018-08-06T16:47:50.428Z,28.33
2018-08-06T16:50:19.075Z,27.13
2018-08-06T16:52:47.556Z,22.77
2018-08-06T16:55:15.701Z,24.17
2018-08-06T16:57:44.001Z,37.00
2018-08-06T17:00:15.967Z,38.10
2018-08-06T17:02:44.636Z,478.07
2018-08-06T17:05:13.750Z,239.07
2018-08-06T17:07:43.146Z,160.67
2018-08-06T17:10:13.807Z,139.97
2018-08-06T17:12:43.286Z,134.20
2018-08-06T17:15:12.874Z,148.63
2018-08-06T17:17:41.355Z,144.23
2018-08-06T17:20:12.828Z,145.47
2018-08-06T17:22:41.406Z,130.50
2018-08-06T17:25:10.908Z,147.80
2018-08-06T17:27:39.924Z,129.47
2018-08-06T17:30:08.669Z,126.93
2018-08-06T17:32:37.900Z,135.07
2018-08-06T17:35:07.299Z,121.23
2018-08-06T17:37:35.676Z,125.83
2018-08-06T17:40:06.382Z,109.70
2018-08-06T17:42:34.706Z,87.60
2018-08-06T17:45:03.031Z,77.97
2018-08-06T17:47:31.346Z,79.07
2018-08-06T17:49:59.704Z,64.67
2018-08-06T17:52:28.018Z,63.87
2018-08-06T17:54:56.365Z,57.50
2018-08-06T17:57:24.669Z,47.50
2018-08-06T17:59:53.024Z,49.20
2018-08-06T18:02:21.367Z,37.87
2018-08-06T18:04:49.745Z,31.97
2018-08-06T18:07:18.114Z,28.17
2018-08-06T18:09:46.455Z,27.63
2018-08-06T18:12:14.789Z,24.53
2018-08-06T18:14:43.320Z,21.27
2018-08-06T18:17:11.636Z,17.83
2018-08-06T18:19:39.957Z,19.73
2018-08-06T18:22:08.294Z,17.70
2018-08-06T18:24:36.628Z,17.97
2018-08-06T18:27:05.482Z,21.30
2018-08-06T18:29:33.835Z,16.67
2018-08-06T18:32:02.502Z,17.57
2018-08-06T18:34:30.809Z,18.20
2018-08-06T18:36:59.200Z,15.10
2018-08-06T18:39:27.642Z,16.40
2018-08-06T18:41:56.015Z,8.03
2018-08-06T18:44:24.347Z,13.17
2018-08-06T18:46:52.454Z,9.37
2018-08-06T18:49:21.043Z,16.77
2018-08-06T18:51:50.261Z,17.70
2018-08-06T18:54:19.198Z,23.07
2018-08-06T18:56:47.924Z,26.80
2018-08-06T18:59:16.648Z,16.43
2018-08-06T19:01:45.230Z,8.73
2018-08-06T19:04:14.297Z,7.90
2018-08-06T19:06:42.720Z,15.57
2018-08-06T19:09:16.439Z,12.00
2018-08-06T19:11:45.769Z,9.80
2018-08-06T19:14:21.234Z,9.30
2018-08-06T19:16:50.820Z,10.93
2018-08-06T19:19:26.440Z,4.77
2018-08-06T19:21:56.046Z,7.33
2018-08-06T19:24:29.890Z,6.40
2018-08-06T19:26:58.297Z,5.47
2018-08-06T19:29:26.761Z,5.37
2018-08-06T19:31:55.390Z,8.57
2018-08-06T19:34:23.930Z,6.80
2018-08-06T19:36:57.786Z,5.67
2018-08-06T19:39:26.453Z,19.57
2018-08-06T19:41:54.760Z,13.20
2018-08-06T19:44:23.072Z,3.77
2018-08-06T19:46:51.483Z,4.20
2018-08-06T19:49:25.139Z,4.27
2018-08-06T19:51:53.933Z,6.73
2018-08-06T19:54:22.320Z,12.67
2018-08-06T19:56:50.796Z,16.67
2018-08-06T19:59:19.155Z,6.93
2018-08-06T20:01:47.495Z,48.33
2018-08-06T20:04:15.843Z,18.57
2018-08-06T20:06:44.420Z,11.87
2018-08-06T20:09:14.311Z,8.30
2018-08-06T20:11:42.634Z,9.80
2018-08-06T20:14:11.240Z,5.50
2018-08-06T20:16:39.553Z,11.57
2018-08-06T20:19:08.726Z,6.03
2018-08-06T20:21:37.025Z,9.10
2018-08-06T20:24:06.178Z,14.27
2018-08-06T20:26:34.593Z,12.83
2018-08-06T20:29:03.148Z,5.53
2018-08-06T20:31:31.530Z,4.30
2018-08-06T20:33:59.887Z,5.80
2018-08-06T20:36:28.222Z,4.40
2018-08-06T20:38:56.589Z,5.00
2018-08-06T20:41:24.913Z,4.67
2018-08-06T20:43:53.227Z,5.47
2018-08-06T20:46:21.563Z,6.83
2018-08-06T20:48:49.939Z,5.33
2018-08-06T20:51:18.380Z,3.60
2018-08-06T20:53:46.677Z,2.60
2018-08-06T20:56:14.962Z,4.07
2018-08-06T20:58:43.017Z,22.80
2018-08-06T21:01:11.370Z,5.53
2018-08-06T21:03:39.690Z,10.07
2018-08-06T21:06:08.002Z,5.23
2018-08-06T21:08:36.307Z,9.93
2018-08-06T21:11:04.646Z,9.23
2018-08-06T21:13:32.960Z,7.10
2018-08-06T21:16:01.300Z,6.43
2018-08-06T21:18:29.672Z,3.73
2018-08-06T21:20:58.044Z,7.83
2018-08-06T21:23:26.376Z,10.40
2018-08-06T21:25:54.679Z,37.30
2018-08-06T21:28:22.889Z,122.80
2018-08-06T21:30:51.198Z,60.23
2018-08-06T21:33:19.454Z,15.53
2018-08-06T21:35:47.767Z,7.97
2018-08-06T21:38:16.089Z,8.80
2018-08-06T21:40:44.383Z,7.70
2018-08-06T21:43:12.725Z,5.70
2018-08-06T21:45:40.804Z,6.47
2018-08-06T21:48:09.095Z,5.60
2018-08-06T21:50:37.475Z,11.60
2018-08-06T21:53:05.519Z,16.50
2018-08-06T21:55:33.839Z,14.43
2018-08-06T21:58:02.224Z,7.50
2018-08-06T22:00:34.394Z,13.23
2018-08-06T22:03:04.164Z,16.53
2018-08-06T22:05:32.599Z,8.97
2018-08-06T22:08:01.182Z,7.43
2018-08-06T22:10:29.481Z,5.37
2018-08-06T22:12:57.786Z,8.67
2018-08-06T22:15:26.204Z,7.87
2018-08-06T22:17:54.599Z,6.63
2018-08-06T22:20:22.939Z,5.30
2018-08-06T22:22:51.533Z,5.70
2018-08-06T22:25:20.014Z,6.23
2018-08-06T22:27:50.222Z,10.63
2018-08-06T22:30:18.662Z,5.97
2018-08-06T22:32:47.085Z,8.00
2018-08-06T22:35:15.599Z,5.83
2018-08-06T22:37:44.010Z,6.53
2018-08-06T22:40:13.433Z,11.00
2018-08-06T22:42:42.196Z,5.43
2018-08-06T22:45:11.778Z,11.20
2018-08-06T22:47:41.554Z,5.37
2018-08-06T22:50:11.387Z,4.17
2018-08-06T22:52:40.190Z,5.87
2018-08-06T22:55:09.802Z,5.47
2018-08-06T22:57:38.126Z,13.97
2018-08-06T23:00:09.216Z,28.00
2018-08-06T23:02:37.526Z,30.20
2018-08-06T23:05:06.388Z,29.27
2018-08-06T23:07:34.772Z,20.17
2018-08-06T23:10:03.123Z,18.37
2018-08-06T23:12:31.438Z,16.80
2018-08-06T23:14:59.735Z,14.80
2018-08-06T23:17:28.088Z,12.87
2018-08-06T23:19:56.398Z,13.00
2018-08-06T23:22:24.764Z,13.87
2018-08-06T23:24:53.074Z,11.83
2018-08-06T23:27:21.369Z,16.53
2018-08-06T23:29:49.651Z,11.43
2018-08-06T23:32:17.943Z,12.90
2018-08-06T23:34:46.255Z,11.43
2018-08-06T23:37:14.555Z,11.73
2018-08-06T23:39:42.851Z,14.57
2018-08-06T23:42:11.143Z,11.90
2018-08-06T23:44:39.446Z,12.43
2018-08-06T23:47:07.741Z,13.10
2018-08-06T23:49:36.051Z,12.07
2018-08-06T23:52:04.430Z,11.20
2018-08-06T23:54:32.746Z,12.37
2018-08-06T23:57:01.200Z,11.40
2018-08-06T23:59:29.488Z,12.40
